createdAt,value
2019-04-23T00:00:13.942Z,998.76
2019-04-23T00:01:16.353Z,998.82
2019-04-23T00:02:16.647Z,998.79
2019-04-23T00:03:12.825Z,998.87
2019-04-23T00:04:11.481Z,998.77
2019-04-23T00:05:27.140Z,998.76
2019-04-23T00:06:18.966Z,998.81
2019-04-23T00:07:26.959Z,998.77
2019-04-23T00:08:17.504Z,998.77
2019-04-23T00:11:17.182Z,998.71
2019-04-23T00:12:23.817Z,998.71
2019-04-23T00:13:12.947Z,998.73
2019-04-23T00:15:13.477Z,998.69
2019-04-23T00:17:15.302Z,998.68
2019-04-23T00:18:19.894Z,998.69
2019-04-23T00:19:11.701Z,998.62
2019-04-23T00:20:14.401Z,998.63
2019-04-23T00:21:15.511Z,998.59
2019-04-23T00:22:13.825Z,998.61
2019-04-23T00:23:10.952Z,998.57
2019-04-23T00:24:17.518Z,998.64
2019-04-23T00:25:41.689Z,998.58
2019-04-23T00:26:17.761Z,998.61
2019-04-23T00:27:27.564Z,998.57
2019-04-23T00:29:20.678Z,998.66
2019-04-23T00:30:14.699Z,998.61
2019-04-23T00:31:20.954Z,998.63
2019-04-23T00:32:15.694Z,998.66
2019-04-23T00:33:18.621Z,998.63
2019-04-23T00:34:29.996Z,998.61
2019-04-23T00:35:16.047Z,998.64
2019-04-23T00:36:24.210Z,998.61
2019-04-23T00:37:21.680Z,998.64
2019-04-23T00:38:18.185Z,998.57
2019-04-23T00:39:12.854Z,998.51
2019-04-23T00:40:15.384Z,998.54
2019-04-23T00:41:17.827Z,998.51
2019-04-23T00:42:17.240Z,998.48
2019-04-23T00:43:15.457Z,998.53
2019-04-23T00:44:15.160Z,998.51
2019-04-23T00:45:07.206Z,998.53
2019-04-23T00:46:15.205Z,998.48
2019-04-23T00:47:12.060Z,998.52
2019-04-23T00:48:19.683Z,998.49
2019-04-23T00:51:18.830Z,998.45
2019-04-23T00:52:19.525Z,998.44
2019-04-23T00:53:17.431Z,998.42
2019-04-23T00:54:12.288Z,998.39
2019-04-23T00:56:32.428Z,998.39
2019-04-23T00:57:23.087Z,998.41
2019-04-23T00:59:12.701Z,998.42
2019-04-23T01:00:19.021Z,998.37
2019-04-23T01:01:14.858Z,998.37
2019-04-23T01:02:19.208Z,998.38
2019-04-23T01:03:15.408Z,998.37
2019-04-23T01:04:13.813Z,998.41
2019-04-23T01:05:20.267Z,998.39
2019-04-23T01:06:18.166Z,998.39
2019-04-23T01:07:14.639Z,998.43
2019-04-23T01:08:15.809Z,998.35
2019-04-23T01:09:08.876Z,998.33
2019-04-23T01:10:18.377Z,998.36
2019-04-23T01:11:08.226Z,998.40
2019-04-23T01:12:18.576Z,998.33
2019-04-23T01:13:14.627Z,998.37
2019-04-23T01:14:13.223Z,998.33
2019-04-23T01:15:19.961Z,998.32
2019-04-23T01:16:11.627Z,998.29
2019-04-23T01:17:17.042Z,998.35
2019-04-23T01:18:19.095Z,998.35
2019-04-23T01:19:06.814Z,998.34
2019-04-23T01:20:08.208Z,998.29
2019-04-23T01:20:54.176Z,998.32
2019-04-23T01:21:51.496Z,998.28
2019-04-23T01:22:50.884Z,998.30
2019-04-23T01:23:57.811Z,998.29
2019-04-23T01:24:52.845Z,998.30
2019-04-23T01:26:00.255Z,998.35
2019-04-23T01:27:35.397Z,998.37
2019-04-23T01:28:13.824Z,998.30
2019-04-23T01:29:37.274Z,998.27
2019-04-23T01:30:13.984Z,998.28
2019-04-23T01:32:16.074Z,998.29
2019-04-23T01:33:21.098Z,998.25
2019-04-23T01:34:21.621Z,998.26
2019-04-23T01:35:28.804Z,998.28
2019-04-23T01:36:22.065Z,998.31
2019-04-23T01:37:19.275Z,998.29
2019-04-23T01:38:21.819Z,998.30
2019-04-23T01:39:17.748Z,998.29
2019-04-23T01:40:27.399Z,998.23
2019-04-23T01:41:21.712Z,998.23
2019-04-23T01:42:22.720Z,998.21
2019-04-23T01:43:17.921Z,998.24
2019-04-23T01:44:24.017Z,998.25
2019-04-23T01:45:20.222Z,998.22
2019-04-23T01:46:17.966Z,998.27
2019-04-23T01:47:18.726Z,998.22
2019-04-23T01:48:13.145Z,998.23
2019-04-23T01:49:29.346Z,998.23
2019-04-23T01:50:23.876Z,998.15
2019-04-23T01:51:20.196Z,998.18
2019-04-23T01:52:24.949Z,998.15
2019-04-23T01:53:24.695Z,998.16
2019-04-23T01:54:22.589Z,998.16
2019-04-23T01:55:21.246Z,998.08
2019-04-23T01:56:20.314Z,998.07
2019-04-23T01:57:19.515Z,998.11
2019-04-23T01:58:38.786Z,998.13
2019-04-23T01:59:20.028Z,998.15
2019-04-23T02:01:16.081Z,998.13
2019-04-23T02:02:22.141Z,998.15
2019-04-23T02:03:18.249Z,998.12
2019-04-23T02:05:23.249Z,998.06
2019-04-23T02:07:25.889Z,998.08
2019-04-23T02:08:14.073Z,998.01
2019-04-23T02:09:16.910Z,998.02
2019-04-23T02:10:32.223Z,998.01
2019-04-23T02:11:11.450Z,997.98
2019-04-23T02:12:20.577Z,998.01
2019-04-23T02:14:14.949Z,998.00
2019-04-23T02:15:18.673Z,997.90
2019-04-23T02:16:22.975Z,997.91
2019-04-23T02:17:18.937Z,997.93
2019-04-23T02:18:15.981Z,997.92
2019-04-23T02:19:23.797Z,997.83
2019-04-23T02:20:24.191Z,997.85
2019-04-23T02:21:15.488Z,997.89
2019-04-23T02:22:26.524Z,997.82
2019-04-23T02:23:21.910Z,997.80
2019-04-23T02:24:22.874Z,997.85
2019-04-23T02:25:26.455Z,997.84
2019-04-23T02:26:13.923Z,997.85
2019-04-23T02:27:22.072Z,997.86
2019-04-23T02:28:33.616Z,997.81
2019-04-23T02:29:29.967Z,997.78
2019-04-23T02:30:40.077Z,997.85
2019-04-23T02:31:40.831Z,997.77
2019-04-23T02:32:29.706Z,997.76
2019-04-23T02:34:35.838Z,997.78
2019-04-23T02:35:40.339Z,997.78
2019-04-23T02:36:11.307Z,997.73
2019-04-23T02:39:26.409Z,997.74
2019-04-23T02:40:30.485Z,997.77
2019-04-23T02:41:31.755Z,997.74
2019-04-23T02:42:39.629Z,997.72
2019-04-23T02:43:16.269Z,997.72
2019-04-23T02:46:43.878Z,997.70
2019-04-23T02:48:24.826Z,997.65
2019-04-23T02:49:36.156Z,997.62
2019-04-23T02:52:21.688Z,997.60
2019-04-23T02:53:45.545Z,997.60
2019-04-23T02:54:37.580Z,997.52
2019-04-23T02:55:29.342Z,997.54
2019-04-23T02:56:30.598Z,997.54
2019-04-23T02:57:20.450Z,997.58
2019-04-23T02:58:26.357Z,997.57
2019-04-23T02:59:42.259Z,997.60
2019-04-23T03:00:46.475Z,997.62
2019-04-23T03:02:41.375Z,997.53
2019-04-23T03:04:27.124Z,997.50
2019-04-23T03:05:19.755Z,997.45
2019-04-23T03:06:18.952Z,997.47
2019-04-23T03:08:26.745Z,997.50
2019-04-23T03:09:33.917Z,997.41
2019-04-23T03:10:22.686Z,997.37
2019-04-23T03:11:25.018Z,997.41
2019-04-23T03:12:31.836Z,997.41
2019-04-23T03:15:30.192Z,997.38
2019-04-23T03:16:33.905Z,997.34
2019-04-23T03:17:15.016Z,997.29
2019-04-23T03:19:25.554Z,997.28
2019-04-23T03:22:25.646Z,997.32
2019-04-23T03:24:32.305Z,997.19
2019-04-23T03:25:31.321Z,997.21
2019-04-23T03:26:37.949Z,997.27
2019-04-23T03:28:27.357Z,997.27
2019-04-23T03:36:13.946Z,997.20
2019-04-23T03:37:35.626Z,997.19
2019-04-23T03:39:34.562Z,997.24
2019-04-23T03:40:13.207Z,997.25
2019-04-23T03:41:27.852Z,997.18
2019-04-23T03:43:25.441Z,997.15
2019-04-23T03:44:22.765Z,997.16
2019-04-23T03:45:36.930Z,997.12
2019-04-23T03:47:26.800Z,997.17
2019-04-23T03:48:36.371Z,997.12
2019-04-23T03:49:32.802Z,997.12
2019-04-23T03:50:35.378Z,997.08
2019-04-23T03:51:30.947Z,997.14
2019-04-23T03:54:31.989Z,997.11
2019-04-23T03:55:32.261Z,997.08
2019-04-23T03:57:24.876Z,997.11
2019-04-23T03:58:27.781Z,997.07
2019-04-23T04:03:57.123Z,997.10
2019-04-23T04:04:25.103Z,997.11
2019-04-23T04:05:32.840Z,997.06
2019-04-23T04:06:37.460Z,997.03
2019-04-23T04:07:30.766Z,997.09
2019-04-23T04:10:31.602Z,997.12
2019-04-23T04:11:21.666Z,997.09
2019-04-23T04:13:15.820Z,997.12
2019-04-23T04:13:30.924Z,997.09
2019-04-23T04:14:33.856Z,997.13
2019-04-23T04:15:53.350Z,997.11
2019-04-23T04:16:17.934Z,997.12
2019-04-23T04:17:20.176Z,997.13
2019-04-23T04:20:32.967Z,997.13
2019-04-23T04:21:29.980Z,997.07
2019-04-23T04:22:32.991Z,997.06
2019-04-23T04:24:29.664Z,997.07
2019-04-23T04:25:26.126Z,997.05
2019-04-23T04:26:34.601Z,997.00
2019-04-23T04:29:27.493Z,997.01
2019-04-23T04:30:27.270Z,997.03
2019-04-23T04:31:21.222Z,996.99
2019-04-23T04:32:17.523Z,996.98
2019-04-23T04:33:40.174Z,996.98
2019-04-23T04:34:39.652Z,996.98
2019-04-23T04:38:40.150Z,997.02
2019-04-23T04:40:36.423Z,996.97
2019-04-23T04:41:29.087Z,997.00
2019-04-23T04:42:15.230Z,997.05
2019-04-23T04:46:34.560Z,996.97
2019-04-23T04:47:31.729Z,996.99
2019-04-23T04:48:27.173Z,997.03
2019-04-23T04:49:23.951Z,996.93
2019-04-23T04:50:26.307Z,997.01
2019-04-23T04:51:27.929Z,997.00
2019-04-23T04:52:38.380Z,996.98
2019-04-23T04:54:24.569Z,997.00
2019-04-23T04:55:21.194Z,996.97
2019-04-23T04:57:32.937Z,997.00
2019-04-23T04:58:25.651Z,996.96
2019-04-23T04:59:37.797Z,997.01
2019-04-23T05:02:26.418Z,996.98
2019-04-23T05:05:51.054Z,997.02
2019-04-23T05:06:31.258Z,996.97
2019-04-23T05:07:30.484Z,996.93
2019-04-23T05:08:19.659Z,996.93
2019-04-23T05:09:31.765Z,996.97
2019-04-23T05:10:29.710Z,996.93
2019-04-23T05:11:26.356Z,996.89
2019-04-23T05:12:22.804Z,996.93
2019-04-23T05:14:25.202Z,996.94
2019-04-23T05:16:24.247Z,996.95
2019-04-23T05:17:24.012Z,996.94
2019-04-23T05:18:23.466Z,996.89
2019-04-23T05:19:29.380Z,996.87
2019-04-23T05:20:23.967Z,996.89
2019-04-23T05:21:44.206Z,996.88
2019-04-23T05:22:22.677Z,996.86
2019-04-23T05:23:22.965Z,996.87
2019-04-23T05:24:31.853Z,996.85
2019-04-23T05:25:11.071Z,996.81
2019-04-23T05:26:20.931Z,996.84
2019-04-23T05:27:20.366Z,996.84
2019-04-23T05:28:30.262Z,996.80
2019-04-23T05:29:11.788Z,996.73
2019-04-23T05:31:20.314Z,996.78
2019-04-23T05:32:15.581Z,996.78
2019-04-23T05:33:18.529Z,996.81
2019-04-23T05:34:28.846Z,996.79
2019-04-23T05:35:28.671Z,996.81
2019-04-23T05:37:23.006Z,996.76
2019-04-23T05:39:24.319Z,996.74
2019-04-23T05:40:25.179Z,996.80
2019-04-23T05:43:38.016Z,996.74
2019-04-23T05:45:16.998Z,996.73
2019-04-23T05:46:22.517Z,996.74
2019-04-23T05:47:25.609Z,996.74
2019-04-23T05:48:19.353Z,996.72
2019-04-23T05:50:31.934Z,996.69
2019-04-23T05:51:26.716Z,996.75
2019-04-23T05:52:17.701Z,996.67
2019-04-23T05:54:18.949Z,996.70
2019-04-23T05:55:14.200Z,996.68
2019-04-23T05:56:13.205Z,996.67
2019-04-23T05:57:20.731Z,996.64
2019-04-23T06:00:19.436Z,996.65
2019-04-23T06:01:33.570Z,996.65
2019-04-23T06:02:11.477Z,996.65
2019-04-23T06:03:19.223Z,996.66
2019-04-23T06:04:19.122Z,996.66
2019-04-23T06:05:20.013Z,996.68
2019-04-23T06:06:20.310Z,996.63
2019-04-23T06:07:40.611Z,996.61
2019-04-23T06:08:18.756Z,996.60
2019-04-23T06:10:14.999Z,996.63
2019-04-23T06:11:18.544Z,996.59
2019-04-23T06:12:13.577Z,996.65
2019-04-23T06:13:19.184Z,996.62
2019-04-23T06:15:14.108Z,996.55
2019-04-23T06:16:22.363Z,996.61
2019-04-23T06:17:19.828Z,996.57
2019-04-23T06:18:18.364Z,996.65
2019-04-23T06:20:22.512Z,996.61
2019-04-23T06:21:15.292Z,996.59
2019-04-23T06:22:27.402Z,996.51
2019-04-23T06:23:27.189Z,996.57
2019-04-23T06:24:24.247Z,996.51
2019-04-23T06:25:21.490Z,996.50
2019-04-23T06:27:32.061Z,996.46
2019-04-23T06:28:18.436Z,996.50
2019-04-23T06:29:22.487Z,996.44
2019-04-23T06:30:23.485Z,996.44
2019-04-23T06:31:20.264Z,996.44
2019-04-23T06:32:14.943Z,996.45
2019-04-23T06:34:16.660Z,996.51
2019-04-23T06:35:11.744Z,996.41
2019-04-23T06:36:19.496Z,996.41
2019-04-23T06:37:18.354Z,996.40
2019-04-23T06:38:39.173Z,996.39
2019-04-23T06:39:28.485Z,996.37
2019-04-23T06:40:15.826Z,996.25
2019-04-23T06:41:16.692Z,996.34
2019-04-23T06:42:14.602Z,996.30
2019-04-23T06:44:19.034Z,996.36
2019-04-23T06:45:15.063Z,996.35
2019-04-23T06:46:17.179Z,996.30
2019-04-23T06:47:12.657Z,996.26
2019-04-23T06:48:22.281Z,996.33
2019-04-23T06:49:20.400Z,996.27
2019-04-23T06:50:14.820Z,996.26
2019-04-23T06:51:20.338Z,996.25
2019-04-23T06:53:09.100Z,996.19
2019-04-23T06:54:19.188Z,996.19
2019-04-23T06:55:15.789Z,996.19
2019-04-23T06:56:21.049Z,996.16
2019-04-23T06:58:23.967Z,996.17
2019-04-23T06:59:17.104Z,996.14
2019-04-23T07:00:17.605Z,996.14
2019-04-23T07:01:09.566Z,996.16
2019-04-23T07:03:25.098Z,996.08
2019-04-23T07:04:17.272Z,996.15
2019-04-23T07:05:15.788Z,996.12
2019-04-23T07:06:28.473Z,996.17
2019-04-23T07:07:36.558Z,996.14
2019-04-23T07:08:30.694Z,996.14
2019-04-23T07:11:23.486Z,996.07
2019-04-23T07:12:15.137Z,996.09
2019-04-23T07:13:26.146Z,996.05
2019-04-23T07:14:03.771Z,996.11
2019-04-23T07:15:30.876Z,996.01
2019-04-23T07:17:08.251Z,996.03
2019-04-23T07:18:05.806Z,996.03
2019-04-23T07:19:25.074Z,995.97
2019-04-23T07:20:15.291Z,996.03
2019-04-23T07:22:18.924Z,995.96
2019-04-23T07:23:22.633Z,995.92
2019-04-23T07:24:16.957Z,995.94
2019-04-23T07:25:14.084Z,995.91
2019-04-23T07:26:26.110Z,995.90
2019-04-23T07:27:14.842Z,995.86
2019-04-23T07:28:17.974Z,995.91
2019-04-23T07:29:22.525Z,995.96
2019-04-23T07:30:16.451Z,995.90
2019-04-23T07:31:20.317Z,995.81
2019-04-23T07:32:11.950Z,995.89
2019-04-23T07:33:11.929Z,995.89
2019-04-23T07:35:13.660Z,995.86
2019-04-23T07:36:20.698Z,995.76
2019-04-23T07:37:15.616Z,995.82
2019-04-23T07:38:28.694Z,995.78
2019-04-23T07:39:17.587Z,995.74
2019-04-23T07:40:27.023Z,995.77
2019-04-23T07:41:24.939Z,995.75
2019-04-23T07:42:18.399Z,995.76
2019-04-23T07:43:18.430Z,995.63
2019-04-23T07:45:33.115Z,995.60
2019-04-23T07:46:25.584Z,995.65
2019-04-23T07:48:32.161Z,995.65
2019-04-23T07:49:15.235Z,995.63
2019-04-23T07:50:23.351Z,995.61
2019-04-23T07:51:14.561Z,995.70
2019-04-23T07:52:18.311Z,995.62
2019-04-23T07:54:16.098Z,995.63
2019-04-23T07:55:23.086Z,995.62
2019-04-23T07:56:15.061Z,995.64
2019-04-23T07:57:25.109Z,995.61
2019-04-23T07:58:21.582Z,995.61
2019-04-23T07:59:20.676Z,995.61
2019-04-23T08:00:18.239Z,995.61
2019-04-23T08:01:13.608Z,995.57
2019-04-23T08:02:21.929Z,995.58
2019-04-23T08:03:28.986Z,995.61
2019-04-23T08:04:16.586Z,995.62
2019-04-23T08:05:25.154Z,995.57
2019-04-23T08:06:12.086Z,995.64
2019-04-23T08:07:14.707Z,995.49
2019-04-23T08:08:15.664Z,995.47
2019-04-23T08:09:22.454Z,995.51
2019-04-23T08:10:17.023Z,995.53
2019-04-23T08:11:30.770Z,995.48
2019-04-23T08:12:19.387Z,995.56
2019-04-23T08:13:15.856Z,995.51
2019-04-23T08:14:08.477Z,995.46
2019-04-23T08:15:15.007Z,995.52
2019-04-23T08:16:28.184Z,995.51
2019-04-23T08:17:05.493Z,995.48
2019-04-23T08:19:36.854Z,995.46
2019-04-23T08:20:24.789Z,995.41
2019-04-23T08:22:30.468Z,995.44
2019-04-23T08:23:33.043Z,995.44
2019-04-23T08:24:36.140Z,995.36
2019-04-23T08:25:27.260Z,995.36
2019-04-23T08:27:31.093Z,995.34
2019-04-23T08:28:35.466Z,995.39
2019-04-23T08:29:19.855Z,995.36
2019-04-23T08:30:15.995Z,995.32
2019-04-23T08:31:33.194Z,995.36
2019-04-23T08:32:19.299Z,995.35
2019-04-23T08:33:23.433Z,995.32
2019-04-23T08:34:31.461Z,995.35
2019-04-23T08:35:21.374Z,995.34
2019-04-23T08:36:27.195Z,995.24
2019-04-23T08:37:36.015Z,995.32
2019-04-23T08:39:30.477Z,995.33
2019-04-23T08:44:27.688Z,995.28
2019-04-23T08:46:39.537Z,995.20
2019-04-23T08:47:22.882Z,995.16
2019-04-23T08:48:41.310Z,995.20
2019-04-23T08:49:29.392Z,995.21
2019-04-23T08:50:27.633Z,995.20
2019-04-23T08:51:37.356Z,995.16
2019-04-23T08:52:23.910Z,995.17
2019-04-23T08:53:40.754Z,995.14
2019-04-23T08:54:35.723Z,995.12
2019-04-23T08:56:41.500Z,995.14
2019-04-23T08:57:36.879Z,995.14
2019-04-23T08:59:34.800Z,995.07
2019-04-23T09:00:23.197Z,995.10
2019-04-23T09:01:27.821Z,995.06
2019-04-23T09:02:37.471Z,995.13
2019-04-23T09:04:23.901Z,995.07
2019-04-23T09:05:34.706Z,995.07
2019-04-23T09:06:21.577Z,995.07
2019-04-23T09:07:27.573Z,995.05
2019-04-23T09:08:27.710Z,995.08
2019-04-23T09:09:27.509Z,995.08
2019-04-23T09:10:29.777Z,995.02
2019-04-23T09:11:35.147Z,994.99
2019-04-23T09:12:33.689Z,995.03
2019-04-23T09:14:15.858Z,995.01
2019-04-23T09:15:36.093Z,994.96
2019-04-23T09:16:31.181Z,994.96
2019-04-23T09:17:27.410Z,994.98
2019-04-23T09:18:39.939Z,994.97
2019-04-23T09:19:46.040Z,994.95
2019-04-23T09:20:31.364Z,994.92
2019-04-23T09:21:21.054Z,994.97
2019-04-23T09:23:29.668Z,994.99
2019-04-23T09:24:25.806Z,994.89
2019-04-23T09:25:28.377Z,994.95
2019-04-23T09:26:22.255Z,994.88
2019-04-23T09:27:26.182Z,994.85
2019-04-23T09:28:34.443Z,994.87
2019-04-23T09:29:31.855Z,994.78
2019-04-23T09:30:26.887Z,994.78
2019-04-23T09:31:45.674Z,994.78
2019-04-23T09:33:36.137Z,994.82
2019-04-23T09:34:26.259Z,994.90
2019-04-23T09:35:26.032Z,994.76
2019-04-23T09:36:29.538Z,994.74
2019-04-23T09:37:40.538Z,994.73
2019-04-23T09:38:28.165Z,994.73
2019-04-23T09:39:32.625Z,994.71
2019-04-23T09:40:31.629Z,994.67
2019-04-23T09:41:27.407Z,994.70
2019-04-23T09:42:33.581Z,994.69
2019-04-23T09:43:36.728Z,994.64
2019-04-23T09:45:26.929Z,994.65
2019-04-23T09:45:34.104Z,994.60
2019-04-23T09:46:24.260Z,994.61
2019-04-23T09:47:49.356Z,994.58
2019-04-23T09:48:23.782Z,994.58
2019-04-23T09:51:29.915Z,994.62
2019-04-23T09:53:29.211Z,994.55
2019-04-23T09:54:28.859Z,994.60
2019-04-23T09:55:32.729Z,994.52
2019-04-23T09:56:22.091Z,994.48
2019-04-23T09:57:24.408Z,994.51
2019-04-23T09:58:15.457Z,994.46
2019-04-23T10:00:34.660Z,994.46
2019-04-23T10:01:25.875Z,994.49
2019-04-23T10:02:17.459Z,994.46
2019-04-23T10:03:12.403Z,994.44
2019-04-23T10:04:08.655Z,994.47
2019-04-23T10:05:11.174Z,994.49
2019-04-23T10:06:04.145Z,994.47
2019-04-23T10:07:11.573Z,994.47
2019-04-23T10:08:07.936Z,994.41
2019-04-23T10:09:01.450Z,994.47
2019-04-23T10:09:57.348Z,994.51
2019-04-23T10:10:55.703Z,994.44
2019-04-23T10:11:55.565Z,994.46
2019-04-23T10:12:55.837Z,994.43
2019-04-23T10:13:56.650Z,994.44
2019-04-23T10:15:07.187Z,994.37
2019-04-23T10:15:58.056Z,994.33
2019-04-23T10:16:55.792Z,994.35
2019-04-23T10:17:56.295Z,994.40
2019-04-23T10:18:55.462Z,994.40
2019-04-23T10:19:55.448Z,994.33
2019-04-23T10:20:56.434Z,994.30
2019-04-23T10:21:55.695Z,994.38
2019-04-23T10:22:56.721Z,994.29
2019-04-23T10:23:57.007Z,994.30
2019-04-23T10:24:55.482Z,994.27
2019-04-23T10:25:56.268Z,994.24
2019-04-23T10:26:55.795Z,994.34
2019-04-23T10:28:01.163Z,994.29
2019-04-23T10:28:58.009Z,994.31
2019-04-23T10:29:56.125Z,994.24
2019-04-23T10:30:56.567Z,994.33
2019-04-23T10:31:55.651Z,994.24
2019-04-23T10:32:55.920Z,994.30
2019-04-23T10:33:55.958Z,994.21
2019-04-23T10:35:06.658Z,994.25
2019-04-23T10:36:02.331Z,994.15
2019-04-23T10:36:57.542Z,994.16
2019-04-23T10:38:02.720Z,994.21
2019-04-23T10:39:04.931Z,994.16
2019-04-23T10:40:00.920Z,994.17
2019-04-23T10:40:56.306Z,994.17
2019-04-23T10:41:56.997Z,994.15
2019-04-23T10:42:56.446Z,994.26
2019-04-23T10:43:56.654Z,994.09
2019-04-23T10:45:08.835Z,994.07
2019-04-23T10:46:13.669Z,994.00
2019-04-23T10:47:23.759Z,994.04
2019-04-23T10:48:36.796Z,994.05
2019-04-23T10:49:50.866Z,994.03
2019-04-23T10:50:28.352Z,994.07
2019-04-23T10:51:30.679Z,994.12
2019-04-23T10:52:26.440Z,993.98
2019-04-23T10:54:36.288Z,994.08
2019-04-23T10:55:25.264Z,993.99
2019-04-23T10:56:30.562Z,994.06
2019-04-23T10:57:21.239Z,994.05
2019-04-23T10:58:31.868Z,994.00
2019-04-23T10:59:27.241Z,994.03
2019-04-23T11:00:24.066Z,993.98
2019-04-23T11:01:32.018Z,993.96
2019-04-23T11:03:42.195Z,993.97
2019-04-23T11:04:38.806Z,993.98
2019-04-23T11:05:28.982Z,993.94
2019-04-23T11:06:35.370Z,993.93
2019-04-23T11:07:31.050Z,993.97
2019-04-23T11:08:25.529Z,993.97
2019-04-23T11:09:43.603Z,993.99
2019-04-23T11:10:23.910Z,993.98
2019-04-23T11:11:27.817Z,993.92
2019-04-23T11:13:39.033Z,993.93
2019-04-23T11:14:25.231Z,993.95
2019-04-23T11:15:36.199Z,993.84
2019-04-23T11:16:45.902Z,993.83
2019-04-23T11:17:35.663Z,993.85
2019-04-23T11:18:34.111Z,993.82
2019-04-23T11:19:32.523Z,993.89
2019-04-23T11:20:30.201Z,993.84
2019-04-23T11:21:28.676Z,993.82
2019-04-23T11:22:42.304Z,993.81
2019-04-23T11:23:22.432Z,993.89
2019-04-23T11:24:45.948Z,993.81
2019-04-23T11:26:28.423Z,993.80
2019-04-23T11:27:28.207Z,993.84
2019-04-23T11:28:27.790Z,993.78
2019-04-23T11:29:34.525Z,993.76
2019-04-23T11:30:36.627Z,993.77
2019-04-23T11:31:34.054Z,993.83
2019-04-23T11:33:20.154Z,993.82
2019-04-23T11:35:29.601Z,993.81
2019-04-23T11:37:36.909Z,993.78
2019-04-23T11:39:32.527Z,993.84
2019-04-23T11:41:41.831Z,993.71
2019-04-23T11:42:32.149Z,993.75
2019-04-23T11:43:28.097Z,993.71
2019-04-23T11:44:31.905Z,993.67
2019-04-23T11:45:32.594Z,993.71
2019-04-23T11:46:40.033Z,993.70
2019-04-23T11:47:59.159Z,993.70
2019-04-23T11:50:39.696Z,993.70
2019-04-23T11:53:28.248Z,993.72
2019-04-23T11:54:28.814Z,993.71
2019-04-23T11:56:51.021Z,993.56
2019-04-23T11:59:33.832Z,993.62
2019-04-23T12:00:39.011Z,993.61
2019-04-23T12:01:44.691Z,993.67
2019-04-23T12:02:29.620Z,993.70
2019-04-23T12:03:19.457Z,993.62
2019-04-23T12:04:31.705Z,993.69
2019-04-23T12:05:44.263Z,993.70
2019-04-23T12:06:25.071Z,993.64
2019-04-23T12:07:34.405Z,993.57
2019-04-23T12:08:34.938Z,993.64
2019-04-23T12:10:32.588Z,993.59
2019-04-23T12:11:50.307Z,993.58
2019-04-23T12:12:28.406Z,993.57
2019-04-23T12:13:26.693Z,993.51
2019-04-23T12:14:37.081Z,993.55
2019-04-23T12:16:31.746Z,993.45
2019-04-23T12:18:43.666Z,993.41
2019-04-23T12:20:28.617Z,993.39
2019-04-23T12:21:28.253Z,993.37
2019-04-23T12:23:33.283Z,993.37
2019-04-23T12:24:50.687Z,993.34
2019-04-23T12:26:29.744Z,993.39
2019-04-23T12:28:29.936Z,993.31
2019-04-23T12:29:27.115Z,993.41
2019-04-23T12:30:39.631Z,993.38
2019-04-23T12:31:28.407Z,993.30
2019-04-23T12:33:28.079Z,993.31
2019-04-23T12:34:25.812Z,993.28
2019-04-23T12:36:28.302Z,993.32
2019-04-23T12:37:28.566Z,993.25
2019-04-23T12:38:22.005Z,993.27
2019-04-23T12:39:25.948Z,993.27
2019-04-23T12:41:24.417Z,993.25
2019-04-23T12:42:43.386Z,993.31
2019-04-23T12:43:18.910Z,993.27
2019-04-23T12:44:25.449Z,993.27
2019-04-23T12:45:26.824Z,993.25
2019-04-23T12:46:26.515Z,993.25
2019-04-23T12:47:40.208Z,993.21
2019-04-23T12:49:44.593Z,993.21
2019-04-23T12:51:34.630Z,993.22
2019-04-23T12:52:25.511Z,993.22
2019-04-23T12:53:34.690Z,993.17
2019-04-23T12:54:33.508Z,993.18
2019-04-23T12:56:38.087Z,993.17
2019-04-23T12:57:28.806Z,993.16
2019-04-23T12:58:26.744Z,993.12
2019-04-23T12:59:23.630Z,993.06
2019-04-23T13:00:29.039Z,993.20
2019-04-23T13:01:28.955Z,993.14
2019-04-23T13:02:33.113Z,993.05
2019-04-23T13:03:25.216Z,993.10
2019-04-23T13:04:26.131Z,993.11
2019-04-23T13:05:31.856Z,993.08
2019-04-23T13:06:20.644Z,993.00
2019-04-23T13:07:36.422Z,993.14
2019-04-23T13:09:32.842Z,992.95
2019-04-23T13:10:33.738Z,992.95
2019-04-23T13:11:30.101Z,992.98
2019-04-23T13:12:36.261Z,992.94
2019-04-23T13:13:28.011Z,992.86
2019-04-23T13:14:30.674Z,992.89
2019-04-23T13:15:22.540Z,992.87
2019-04-23T13:16:25.457Z,992.87
2019-04-23T13:17:29.713Z,992.89
2019-04-23T13:18:23.605Z,992.86
2019-04-23T13:19:37.259Z,992.89
2019-04-23T13:20:24.775Z,992.91
2019-04-23T13:21:45.344Z,992.90
2019-04-23T13:22:25.694Z,992.89
2019-04-23T13:23:22.201Z,992.83
2019-04-23T13:24:26.546Z,992.80
2019-04-23T13:25:27.027Z,992.79
2019-04-23T13:26:11.829Z,992.81
2019-04-23T13:27:29.361Z,992.80
2019-04-23T13:28:21.453Z,992.82
2019-04-23T13:29:33.278Z,992.79
2019-04-23T13:30:32.405Z,992.78
2019-04-23T13:31:16.276Z,992.78
2019-04-23T13:32:27.621Z,992.84
2019-04-23T13:34:23.068Z,992.80
2019-04-23T13:35:43.614Z,992.80
2019-04-23T13:36:29.095Z,992.75
2019-04-23T13:37:33.118Z,992.77
2019-04-23T13:39:30.915Z,992.71
2019-04-23T13:40:22.800Z,992.91
2019-04-23T13:41:28.954Z,992.80
2019-04-23T13:42:33.743Z,992.74
2019-04-23T13:43:30.158Z,992.70
2019-04-23T13:44:27.155Z,992.66
2019-04-23T13:45:49.330Z,992.66
2019-04-23T13:46:14.955Z,992.72
2019-04-23T13:47:43.520Z,992.69
2019-04-23T13:48:18.413Z,992.64
2019-04-23T13:49:28.118Z,992.64
2019-04-23T13:50:37.139Z,992.67
2019-04-23T13:52:51.731Z,992.61
2019-04-23T13:53:38.337Z,992.62
2019-04-23T13:54:29.883Z,992.63
2019-04-23T13:55:14.704Z,992.65
2019-04-23T13:56:31.921Z,992.52
2019-04-23T13:58:22.307Z,992.54
2019-04-23T13:59:31.442Z,992.54
2019-04-23T14:00:39.036Z,992.56
2019-04-23T14:01:28.782Z,992.57
2019-04-23T14:02:34.578Z,992.56
2019-04-23T14:03:33.714Z,992.63
2019-04-23T14:04:33.301Z,992.63
2019-04-23T14:06:46.525Z,992.54
2019-04-23T14:07:32.955Z,992.50
2019-04-23T14:08:38.484Z,992.53
2019-04-23T14:09:32.077Z,992.53
2019-04-23T14:10:29.812Z,992.46
2019-04-23T14:12:24.183Z,992.47
2019-04-23T14:13:39.364Z,992.45
2019-04-23T14:14:40.056Z,992.43
2019-04-23T14:15:36.933Z,992.42
2019-04-23T14:16:29.816Z,992.42
2019-04-23T14:17:46.753Z,992.47
2019-04-23T14:19:16.245Z,992.46
2019-04-23T14:20:21.171Z,992.47
2019-04-23T14:22:48.314Z,992.53
2019-04-23T14:23:37.689Z,992.37
2019-04-23T14:24:46.192Z,992.41
2019-04-23T14:25:17.059Z,992.40
2019-04-23T14:28:28.148Z,992.41
2019-04-23T14:29:22.935Z,992.46
2019-04-23T14:30:29.921Z,992.42
2019-04-23T14:31:17.463Z,992.49
2019-04-23T14:32:25.058Z,992.51
2019-04-23T14:33:26.533Z,992.40
2019-04-23T14:34:19.552Z,992.43
2019-04-23T14:35:26.979Z,992.52
2019-04-23T14:36:25.343Z,992.49
2019-04-23T14:40:26.704Z,992.40
2019-04-23T14:41:23.638Z,992.38
2019-04-23T14:42:29.286Z,992.43
2019-04-23T14:43:22.510Z,992.52
2019-04-23T14:44:19.670Z,992.47
2019-04-23T14:45:44.201Z,992.43
2019-04-23T14:48:42.123Z,992.44
2019-04-23T14:49:20.564Z,992.44
2019-04-23T14:50:34.892Z,992.58
2019-04-23T14:52:43.479Z,992.37
2019-04-23T14:54:34.647Z,992.43
2019-04-23T14:56:20.128Z,992.42
2019-04-23T14:57:35.283Z,992.35
2019-04-23T14:58:31.036Z,992.33
2019-04-23T15:00:29.372Z,992.30
2019-04-23T15:01:33.596Z,992.36
2019-04-23T15:02:25.689Z,992.34
2019-04-23T15:03:28.750Z,992.30
2019-04-23T15:04:19.129Z,992.37
2019-04-23T15:05:25.771Z,992.35
2019-04-23T15:06:27.768Z,992.42
2019-04-23T15:07:28.328Z,992.37
2019-04-23T15:08:32.719Z,992.41
2019-04-23T15:10:24.495Z,992.32
2019-04-23T15:11:26.482Z,992.29
2019-04-23T15:12:25.372Z,992.24
2019-04-23T15:13:25.690Z,992.26
2019-04-23T15:14:28.685Z,992.24
2019-04-23T15:15:26.837Z,992.20